createdAt,value
2022-09-01T00:01:27.283Z,98883.63
2022-09-01T00:03:53.974Z,98875.06
2022-09-01T00:06:22.704Z,98875.16
2022-09-01T00:08:49.549Z,98872.56
2022-09-01T00:11:15.899Z,98877.69
2022-09-01T00:13:42.288Z,98877.94
2022-09-01T00:16:09.585Z,98880.59
2022-09-01T00:18:36.030Z,98875.63
2022-09-01T00:21:02.613Z,98877.97
2022-09-01T00:23:29.821Z,98875.78
2022-09-01T00:25:56.166Z,98871.38
2022-09-01T00:28:22.524Z,98877.25
2022-09-01T00:30:56.088Z,98872.63
2022-09-01T00:33:22.454Z,98876.78
2022-09-01T00:35:48.814Z,98874.56
2022-09-01T00:38:15.186Z,98873.91
2022-09-01T00:40:41.570Z,98861.78
2022-09-01T00:43:14.873Z,98873.28
2022-09-01T00:45:42.011Z,98870.25
2022-09-01T00:48:09.200Z,98875.16
2022-09-01T00:50:36.883Z,98864.56
2022-09-01T00:53:03.240Z,98859.25
2022-09-01T00:55:30.534Z,98867.50
2022-09-01T00:57:59.414Z,98868.16
2022-09-01T01:00:26.796Z,98870.81
2022-09-01T01:02:56.712Z,98872.78
2022-09-01T01:05:27.993Z,98864.97
2022-09-01T01:07:54.431Z,98864.72
2022-09-01T01:10:22.309Z,98866.34
2022-09-01T01:12:50.972Z,98866.53
2022-09-01T01:15:17.331Z,98852.97
2022-09-01T01:17:43.683Z,98856.38
2022-09-01T01:20:28.746Z,98853.22
2022-09-01T01:23:15.875Z,98852.84
2022-09-01T01:25:44.287Z,98858.16
2022-09-01T01:28:10.630Z,98852.69
2022-09-01T01:30:39.599Z,98850.03
2022-09-01T01:33:06.267Z,98853.66
2022-09-01T01:35:33.823Z,98854.19
2022-09-01T01:38:00.676Z,98857.00
2022-09-01T01:40:29.078Z,98854.44
2022-09-01T01:42:57.221Z,98858.31
2022-09-01T01:45:23.850Z,98854.19
2022-09-01T01:47:53.150Z,98854.97
2022-09-01T01:50:20.618Z,98855.78
2022-09-01T01:52:47.276Z,98861.88
2022-09-01T01:55:13.648Z,98859.25
2022-09-01T01:57:40.327Z,98859.63
2022-09-01T02:00:07.215Z,98858.94
2022-09-01T02:02:33.882Z,98863.41
2022-09-01T02:05:00.350Z,98855.03
2022-09-01T02:07:27.454Z,98855.94
2022-09-01T02:09:58.129Z,98855.13
2022-09-01T02:12:25.185Z,98854.13
2022-09-01T02:14:54.740Z,98852.59
2022-09-01T02:17:21.555Z,98857.00
2022-09-01T02:19:48.502Z,98852.25
2022-09-01T02:22:14.854Z,98847.16
2022-09-01T02:24:46.454Z,98848.44
2022-09-01T02:27:12.823Z,98855.03
2022-09-01T02:29:43.442Z,98847.16
2022-09-01T02:32:11.583Z,98849.28
2022-09-01T02:34:39.398Z,98860.59
2022-09-01T02:37:05.754Z,98848.72
2022-09-01T02:39:33.564Z,98846.38
2022-09-01T02:42:01.184Z,98845.44
2022-09-01T02:44:29.189Z,98842.47
2022-09-01T02:46:55.985Z,98834.63
2022-09-01T02:49:24.766Z,98836.72
2022-09-01T02:51:54.075Z,98836.19
2022-09-01T02:54:24.546Z,98831.88
2022-09-01T02:56:54.639Z,98824.56
2022-09-01T02:59:21.924Z,98820.25
2022-09-01T03:01:49.715Z,98822.53
2022-09-01T03:04:16.379Z,98822.94
2022-09-01T03:06:42.785Z,98823.66
2022-09-01T03:09:11.350Z,98829.47
2022-09-01T03:11:38.778Z,98823.63
2022-09-01T03:14:05.492Z,98820.09
2022-09-01T03:16:32.133Z,98824.72
2022-09-01T03:18:58.897Z,98816.81
2022-09-01T03:21:25.885Z,98820.97
2022-09-01T03:23:52.638Z,98821.00
2022-09-01T03:26:21.017Z,98819.38
2022-09-01T03:28:47.836Z,98824.91
2022-09-01T03:31:14.324Z,98815.06
2022-09-01T03:33:40.874Z,98813.84
2022-09-01T03:36:14.900Z,98819.84
2022-09-01T03:38:43.838Z,98821.00
2022-09-01T03:41:10.385Z,98819.13
2022-09-01T03:43:36.762Z,98812.91
2022-09-01T03:46:20.177Z,98813.81
2022-09-01T03:48:54.992Z,98813.94
2022-09-01T03:51:22.643Z,98817.19
2022-09-01T03:53:49.372Z,98815.91
2022-09-01T03:56:16.598Z,98810.81
2022-09-01T03:58:47.269Z,98813.34
2022-09-01T04:01:14.117Z,98814.53
2022-09-01T04:03:41.191Z,98807.56
2022-09-01T04:06:08.606Z,98811.03
2022-09-01T04:08:34.996Z,98810.56
2022-09-01T04:11:03.724Z,98810.22
2022-09-01T04:13:39.666Z,98805.25
2022-09-01T04:16:32.107Z,98810.09
2022-09-01T04:19:00.700Z,98809.75
2022-09-01T04:21:27.049Z,98808.25
2022-09-01T04:23:53.403Z,98820.88
2022-09-01T04:26:20.847Z,98817.19
2022-09-01T04:28:48.283Z,98817.28
2022-09-01T04:31:17.716Z,98822.75
2022-09-01T04:33:46.606Z,98824.25
2022-09-01T04:36:21.122Z,98815.81
2022-09-01T04:38:47.748Z,98822.63
2022-09-01T04:41:17.803Z,98821.00
2022-09-01T04:43:45.341Z,98827.50
2022-09-01T04:46:14.354Z,98825.53
2022-09-01T04:48:43.173Z,98826.13
2022-09-01T04:51:12.523Z,98826.81
2022-09-01T04:53:39.278Z,98835.59
2022-09-01T04:56:06.017Z,98818.13
2022-09-01T04:58:32.540Z,98818.75
2022-09-01T05:01:00.345Z,98819.06
2022-09-01T05:03:26.782Z,98808.78
2022-09-01T05:05:54.180Z,98814.69
2022-09-01T05:08:24.343Z,98818.97
2022-09-01T05:10:52.478Z,98816.47
2022-09-01T05:13:19.708Z,98825.84
2022-09-01T05:15:46.862Z,98815.53
2022-09-01T05:18:14.218Z,98823.06
2022-09-01T05:20:43.512Z,98823.56
2022-09-01T05:23:12.603Z,98822.94
2022-09-01T05:25:40.770Z,98827.44
2022-09-01T05:28:07.129Z,98827.06
2022-09-01T05:30:36.581Z,98821.69
2022-09-01T05:33:03.017Z,98818.22
2022-09-01T05:35:32.680Z,98822.91
2022-09-01T05:37:59.568Z,98828.41
2022-09-01T05:40:25.947Z,98825.69
2022-09-01T05:42:55.777Z,98836.66
2022-09-01T05:45:24.397Z,98833.31
2022-09-01T05:47:52.325Z,98838.97
2022-09-01T05:50:19.255Z,98830.81
2022-09-01T05:52:48.164Z,98835.09
2022-09-01T05:55:15.193Z,98831.41
2022-09-01T05:57:42.667Z,98831.41
2022-09-01T06:00:13.882Z,98832.94
2022-09-01T06:02:40.959Z,98827.38
2022-09-01T06:05:07.572Z,98824.53
2022-09-01T06:07:35.761Z,98828.28
2022-09-01T06:10:02.178Z,98823.75
2022-09-01T06:12:29.018Z,98829.00
2022-09-01T06:14:55.490Z,98829.34
2022-09-01T06:17:24.885Z,98828.16
2022-09-01T06:19:52.673Z,98834.19
2022-09-01T06:22:20.632Z,98828.50
2022-09-01T06:24:53.308Z,98822.25
2022-09-01T06:27:22.078Z,98831.94
2022-09-01T06:29:55.235Z,98827.81
2022-09-01T06:32:21.592Z,98831.56
2022-09-01T06:34:51.407Z,98837.53
2022-09-01T06:37:22.446Z,98838.59
2022-09-01T06:39:49.527Z,98837.53
2022-09-01T06:42:17.437Z,98833.28
2022-09-01T06:44:43.868Z,98839.28
2022-09-01T06:47:10.270Z,98840.53
2022-09-01T06:49:38.018Z,98845.50
2022-09-01T06:52:07.471Z,98840.56
2022-09-01T06:54:35.591Z,98850.53
2022-09-01T06:58:03.323Z,98849.75
2022-09-01T06:59:50.718Z,98852.06
2022-09-01T07:02:19.832Z,98844.50
2022-09-01T07:04:51.866Z,98849.66
2022-09-01T07:10:18.473Z,98858.22
2022-09-01T07:13:11.600Z,98868.72
2022-09-01T07:18:27.710Z,98869.34
2022-09-01T07:21:38.763Z,98871.50
2022-09-01T07:24:07.771Z,98874.28
2022-09-01T07:26:30.065Z,98876.53
2022-09-01T07:29:06.028Z,98873.78
2022-09-01T07:34:42.176Z,98881.00
2022-09-01T07:45:29.542Z,98876.25
2022-09-01T07:47:56.150Z,98880.09
2022-09-01T07:50:39.912Z,98877.56
2022-09-01T07:53:09.119Z,98881.94
2022-09-01T07:55:35.770Z,98879.53
2022-09-01T07:58:02.122Z,98878.97
2022-09-01T08:00:31.128Z,98874.09
2022-09-01T08:02:58.182Z,98878.56
2022-09-01T08:05:27.081Z,98887.44
2022-09-01T08:07:55.063Z,98889.16
2022-09-01T08:10:21.514Z,98883.91
2022-09-01T08:12:56.285Z,98885.16
2022-09-01T08:15:41.219Z,98884.78
2022-09-01T08:18:09.644Z,98888.09
2022-09-01T08:20:39.419Z,98888.63
2022-09-01T08:23:05.893Z,98891.47
2022-09-01T08:25:32.407Z,98892.38
2022-09-01T08:28:00.470Z,98892.75
2022-09-01T08:30:27.837Z,98892.50
2022-09-01T08:32:54.248Z,98899.81
2022-09-01T08:35:20.673Z,98895.78
2022-09-01T08:37:47.040Z,98899.72
2022-09-01T08:40:14.773Z,98892.19
2022-09-01T08:42:48.797Z,98901.47
2022-09-01T08:45:34.571Z,98907.94
2022-09-01T08:48:37.134Z,98909.97
2022-09-01T08:50:53.098Z,98909.59
2022-09-01T08:53:32.459Z,98904.75
2022-09-01T08:55:59.005Z,98907.97
2022-09-01T08:58:25.424Z,98908.38
2022-09-01T09:00:55.892Z,98910.38
2022-09-01T09:03:23.912Z,98908.75
2022-09-01T09:06:07.063Z,98912.34
2022-09-01T09:08:53.210Z,98909.91
2022-09-01T09:11:34.916Z,98907.94
2022-09-01T09:14:01.195Z,98906.75
2022-09-01T09:16:28.902Z,98905.94
2022-09-01T09:18:55.952Z,98906.38
2022-09-01T09:21:30.285Z,98912.00
2022-09-01T09:23:59.371Z,98907.16
2022-09-01T09:26:25.937Z,98919.25
2022-09-01T09:28:55.051Z,98911.50
2022-09-01T09:31:25.086Z,98912.91
2022-09-01T09:33:52.889Z,98907.81
2022-09-01T09:36:30.304Z,98920.81
2022-09-01T09:39:03.917Z,98906.16
2022-09-01T09:41:31.490Z,98912.25
2022-09-01T09:43:59.204Z,98903.66
2022-09-01T09:46:26.474Z,98907.13
2022-09-01T09:49:11.788Z,98909.13
2022-09-01T09:51:43.168Z,98895.91
2022-09-01T09:54:13.460Z,98899.06
2022-09-01T09:56:41.629Z,98906.94
2022-09-01T09:59:39.905Z,98914.25
2022-09-01T10:02:21.988Z,98905.13
2022-09-01T10:04:55.779Z,98906.16
2022-09-01T10:07:35.527Z,98887.06
2022-09-01T10:10:03.959Z,98886.25
2022-09-01T10:12:30.841Z,98902.09
2022-09-01T10:15:00.532Z,98884.94
2022-09-01T10:17:35.928Z,98891.38
2022-09-01T10:20:06.186Z,98882.94
2022-09-01T10:22:33.610Z,98887.34
2022-09-01T10:25:00.752Z,98878.22
2022-09-01T10:27:31.961Z,98875.34
2022-09-01T10:32:54.335Z,98880.59
2022-09-01T10:35:31.897Z,98880.72
2022-09-01T10:37:59.417Z,98870.56
2022-09-01T10:40:31.661Z,98862.09
2022-09-01T10:43:17.514Z,98871.59
2022-09-01T10:45:44.479Z,98873.66
2022-09-01T10:48:33.655Z,98875.78
2022-09-01T10:51:28.064Z,98867.72
2022-09-01T10:53:55.339Z,98865.31
2022-09-01T10:56:36.911Z,98856.81
2022-09-01T11:04:49.539Z,98866.16
2022-09-01T11:07:50.065Z,98862.22
2022-09-01T11:10:32.154Z,98865.78
2022-09-01T11:13:19.865Z,98857.22
2022-09-01T11:15:46.287Z,98855.03
2022-09-01T11:18:17.384Z,98857.06
2022-09-01T11:20:56.308Z,98857.06
2022-09-01T11:23:31.781Z,98847.81
2022-09-01T11:28:46.020Z,98852.94
2022-09-01T11:31:15.402Z,98851.13
2022-09-01T11:33:50.901Z,98855.97
2022-09-01T11:36:47.359Z,98861.47
2022-09-01T11:39:17.613Z,98848.69
2022-09-01T11:41:45.468Z,98856.84
2022-09-01T11:44:20.919Z,98846.53
2022-09-01T11:46:47.351Z,98860.06
2022-09-01T11:49:28.153Z,98850.91
2022-09-01T11:51:54.682Z,98843.25
2022-09-01T11:54:21.085Z,98851.69
2022-09-01T11:56:47.446Z,98853.41
2022-09-01T11:59:13.943Z,98855.69
2022-09-01T12:01:40.562Z,98853.69
2022-09-01T12:04:23.142Z,98850.50
2022-09-01T12:06:58.714Z,98854.41
2022-09-01T12:09:32.280Z,98858.91
2022-09-01T12:11:59.125Z,98861.91
2022-09-01T12:14:25.668Z,98864.75
2022-09-01T12:16:59.330Z,98851.97
2022-09-01T12:19:30.423Z,98854.31
2022-09-01T12:21:58.619Z,98860.22
2022-09-01T12:24:24.969Z,98846.91
2022-09-01T12:26:51.853Z,98845.88
2022-09-01T12:29:18.205Z,98855.50
2022-09-01T12:31:45.222Z,98845.50
2022-09-01T12:34:23.729Z,98840.53
2022-09-01T12:37:03.376Z,98846.09
2022-09-01T12:39:48.915Z,98849.69
2022-09-01T12:42:19.201Z,98846.69
2022-09-01T12:44:52.103Z,98848.03
2022-09-01T12:47:33.739Z,98841.88
2022-09-01T12:50:00.849Z,98846.31
2022-09-01T12:52:27.575Z,98844.34
2022-09-01T12:54:59.922Z,98829.97
2022-09-01T12:57:28.165Z,98831.34
2022-09-01T13:00:24.989Z,98824.38
2022-09-01T13:02:53.247Z,98848.84
2022-09-01T13:05:30.612Z,98831.72
2022-09-01T13:07:58.851Z,98815.69
2022-09-01T13:10:28.055Z,98832.81
2022-09-01T13:12:54.637Z,98824.53
2022-09-01T13:15:21.006Z,98822.78
2022-09-01T13:17:47.480Z,98814.50
2022-09-01T13:20:13.844Z,98808.28
2022-09-01T13:22:44.646Z,98807.50
2022-09-01T13:25:13.287Z,98801.16
2022-09-01T13:27:44.160Z,98804.91
2022-09-01T13:30:14.286Z,98792.41
2022-09-01T13:33:18.869Z,98789.31
2022-09-01T13:35:27.367Z,98796.25
2022-09-01T13:37:55.334Z,98788.34
2022-09-01T13:40:21.827Z,98784.63
2022-09-01T13:42:52.092Z,98783.84
2022-09-01T13:45:18.950Z,98783.84
2022-09-01T13:51:14.583Z,98786.03
2022-09-01T13:53:18.761Z,98773.66
2022-09-01T13:55:45.176Z,98778.44
2022-09-01T13:58:12.231Z,98775.63
2022-09-01T14:00:40.094Z,98777.00
2022-09-01T14:03:17.949Z,98781.06
2022-09-01T14:05:45.044Z,98776.41
2022-09-01T14:08:13.717Z,98771.38
2022-09-01T14:10:41.864Z,98761.34
2022-09-01T14:13:08.559Z,98760.66
2022-09-01T14:15:34.901Z,98755.31
2022-09-01T14:18:01.335Z,98760.28
2022-09-01T14:20:31.329Z,98741.69
2022-09-01T14:23:02.926Z,98748.47
2022-09-01T14:25:29.445Z,98762.63
2022-09-01T14:27:57.112Z,98752.19
2022-09-01T14:30:26.719Z,98757.03
2022-09-01T14:32:58.551Z,98755.88
2022-09-01T14:35:25.422Z,98756.75
2022-09-01T14:37:55.011Z,98754.91
2022-09-01T14:40:21.880Z,98749.66
2022-09-01T14:42:49.505Z,98744.81
2022-09-01T14:45:18.514Z,98745.16
2022-09-01T14:47:45.881Z,98747.66
2022-09-01T14:50:12.520Z,98738.75
2022-09-01T14:52:38.963Z,98735.63
2022-09-01T14:55:05.558Z,98737.63
2022-09-01T14:57:36.488Z,98729.31
2022-09-01T15:00:10.092Z,98737.44
2022-09-01T15:02:36.815Z,98733.88
2022-09-01T15:05:03.544Z,98728.31
2022-09-01T15:07:29.952Z,98723.13
2022-09-01T15:09:58.701Z,98716.44
2022-09-01T15:12:25.565Z,98718.00
2022-09-01T15:14:51.917Z,98711.41
2022-09-01T15:17:18.287Z,98716.47
2022-09-01T15:19:44.640Z,98717.91
2022-09-01T15:22:14.366Z,98723.47
2022-09-01T15:24:40.714Z,98713.84
2022-09-01T15:27:07.160Z,98718.53
2022-09-01T15:29:34.214Z,98715.03
2022-09-01T15:32:01.537Z,98713.88
2022-09-01T15:34:28.209Z,98713.78
2022-09-01T15:36:54.590Z,98707.47
2022-09-01T15:39:21.326Z,98709.91
2022-09-01T15:41:47.679Z,98715.19
2022-09-01T15:44:14.377Z,98712.66
2022-09-01T15:46:42.961Z,98704.34
2022-09-01T15:49:10.766Z,98704.34
2022-09-01T15:51:41.091Z,98698.69
2022-09-01T15:54:08.815Z,98700.00
2022-09-01T15:56:35.239Z,98696.41
2022-09-01T15:59:02.408Z,98698.44
2022-09-01T16:01:29.456Z,98702.91
2022-09-01T16:03:56.065Z,98699.28
2022-09-01T16:06:22.999Z,98693.97
2022-09-01T16:08:50.083Z,98690.81
2022-09-01T16:11:16.441Z,98692.91
2022-09-01T16:13:42.838Z,98691.28
2022-09-01T16:16:14.973Z,98690.16
2022-09-01T16:18:45.349Z,98684.16
2022-09-01T16:21:14.870Z,98687.50
2022-09-01T16:23:42.969Z,98689.47
2022-09-01T16:26:11.709Z,98684.28
2022-09-01T16:28:38.145Z,98687.16
2022-09-01T16:31:07.986Z,98683.88
2022-09-01T16:33:34.410Z,98687.25
2022-09-01T16:36:03.772Z,98687.66
2022-09-01T16:38:33.083Z,98682.03
2022-09-01T16:41:23.170Z,98688.53
2022-09-01T16:43:54.411Z,98679.72
2022-09-01T16:46:23.954Z,98678.53
2022-09-01T16:48:55.086Z,98678.88
2022-09-01T16:51:27.544Z,98672.84
2022-09-01T16:54:01.050Z,98670.88
2022-09-01T16:56:27.935Z,98678.53
2022-09-01T16:58:56.539Z,98674.94
2022-09-01T17:01:55.980Z,98677.75
2022-09-01T17:04:27.039Z,98675.72
2022-09-01T17:06:53.363Z,98674.56
2022-09-01T17:09:26.565Z,98677.38
2022-09-01T17:11:53.599Z,98669.75
2022-09-01T17:14:25.427Z,98675.78
2022-09-01T17:16:54.588Z,98674.63
2022-09-01T17:19:21.132Z,98671.78
2022-09-01T17:21:56.553Z,98673.00
2022-09-01T17:24:28.439Z,98671.41
2022-09-01T17:26:59.039Z,98671.81
2022-09-01T17:29:32.661Z,98665.78
2022-09-01T17:32:14.231Z,98672.19
2022-09-01T17:34:43.619Z,98679.84
2022-09-01T17:37:32.611Z,98676.59
2022-09-01T17:40:02.209Z,98675.41
2022-09-01T17:42:36.575Z,98678.63
2022-09-01T17:45:10.103Z,98674.63
2022-09-01T17:47:41.460Z,98681.88
2022-09-01T17:50:11.206Z,98682.66
2022-09-01T17:52:52.530Z,98682.66
2022-09-01T17:55:41.201Z,98684.25
2022-09-01T17:58:12.310Z,98682.66
2022-09-01T18:00:59.164Z,98677.72
2022-09-01T18:03:45.707Z,98677.75
2022-09-01T18:06:28.730Z,98678.19
2022-09-01T18:08:56.211Z,98677.28
2022-09-01T18:11:34.873Z,98675.59
2022-09-01T18:14:07.479Z,98677.56
2022-09-01T18:16:36.750Z,98675.09
2022-09-01T18:19:03.894Z,98674.16
2022-09-01T18:21:31.992Z,98676.94
2022-09-01T18:24:01.905Z,98676.47
2022-09-01T18:26:32.579Z,98676.72
2022-09-01T18:29:00.007Z,98678.56
2022-09-01T18:31:35.805Z,98676.78
2022-09-01T18:34:05.278Z,98679.81
2022-09-01T18:36:39.569Z,98679.34
2022-09-01T18:39:08.890Z,98682.84
2022-09-01T18:41:43.670Z,98686.41
2022-09-01T18:44:23.164Z,98680.28
2022-09-01T18:47:12.697Z,98686.97
2022-09-01T18:50:01.415Z,98680.59
2022-09-01T18:52:47.255Z,98682.22
2022-09-01T18:55:19.602Z,98681.19
2022-09-01T18:57:46.568Z,98681.88
2022-09-01T19:00:18.148Z,98680.94
2022-09-01T19:02:48.899Z,98679.97
2022-09-01T19:05:23.488Z,98675.34
2022-09-01T19:07:57.504Z,98674.97
2022-09-01T19:10:24.511Z,98678.63
2022-09-01T19:12:54.314Z,98683.97
2022-09-01T19:15:30.019Z,98685.03
2022-09-01T19:18:02.454Z,98691.63
2022-09-01T19:20:46.394Z,98684.56
2022-09-01T19:23:21.023Z,98688.94
2022-09-01T19:25:47.706Z,98697.97
2022-09-01T19:28:16.216Z,98693.38
2022-09-01T19:30:44.253Z,98688.81
2022-09-01T19:33:11.627Z,98696.34
2022-09-01T19:35:37.973Z,98694.88
2022-09-01T19:38:06.054Z,98691.75
2022-09-01T19:43:04.926Z,98696.88
2022-09-01T19:45:52.424Z,98704.50
2022-09-01T19:48:24.078Z,98702.91
2022-09-01T19:50:55.081Z,98698.44
2022-09-01T19:53:57.091Z,98705.97
2022-09-01T19:56:39.816Z,98703.13
2022-09-01T19:59:25.165Z,98696.16
2022-09-01T20:01:57.838Z,98704.09
2022-09-01T20:04:27.341Z,98714.63
2022-09-01T20:06:56.534Z,98710.09
2022-09-01T20:09:22.826Z,98708.69
2022-09-01T20:11:50.691Z,98703.81
2022-09-01T20:14:23.179Z,98701.56
2022-09-01T20:16:50.830Z,98702.38
2022-09-01T20:19:26.351Z,98705.09
2022-09-01T20:21:52.706Z,98702.28
2022-09-01T20:24:31.168Z,98700.59
2022-09-01T20:26:57.713Z,98707.50
2022-09-01T20:29:26.094Z,98699.41
2022-09-01T20:31:54.237Z,98702.16
2022-09-01T20:34:26.940Z,98699.25
2022-09-01T20:36:54.744Z,98701.66
2022-09-01T20:39:48.934Z,98701.84
2022-09-01T20:42:19.794Z,98709.19
2022-09-01T20:44:52.344Z,98709.72
2022-09-01T20:47:18.751Z,98708.50
2022-09-01T20:49:45.656Z,98696.88
2022-09-01T20:52:15.021Z,98707.34
2022-09-01T20:54:56.573Z,98699.28
2022-09-01T20:57:35.281Z,98704.88
2022-09-01T21:00:06.908Z,98704.50
2022-09-01T21:02:41.435Z,98704.94
2022-09-01T21:05:26.565Z,98709.19
2022-09-01T21:07:56.350Z,98709.16
2022-09-01T21:10:35.123Z,98706.91
2022-09-01T21:13:13.491Z,98693.44
2022-09-01T21:15:43.010Z,98694.47
2022-09-01T21:18:09.461Z,98690.84
2022-09-01T21:20:55.278Z,98690.41
2022-09-01T21:23:21.767Z,98699.38
2022-09-01T21:25:48.208Z,98693.81
2022-09-01T21:28:20.150Z,98700.28
2022-09-01T21:30:47.120Z,98690.19
2022-09-01T21:33:13.647Z,98685.50
2022-09-01T21:35:40.074Z,98693.00
2022-09-01T21:38:07.056Z,98684.75
2022-09-01T21:40:33.490Z,98691.38
2022-09-01T21:43:01.162Z,98690.44
2022-09-01T21:45:27.798Z,98686.19
2022-09-01T21:47:54.318Z,98677.88
2022-09-01T21:50:21.278Z,98688.22
2022-09-01T21:52:47.617Z,98682.38
2022-09-01T21:55:13.982Z,98685.22
2022-09-01T21:57:41.380Z,98683.91
2022-09-01T22:00:12.671Z,98682.38
2022-09-01T22:02:39.099Z,98676.84
2022-09-01T22:05:08.418Z,98683.38
2022-09-01T22:07:35.125Z,98674.56
2022-09-01T22:10:01.488Z,98675.63
2022-09-01T22:12:27.861Z,98677.13
2022-09-01T22:14:54.281Z,98684.16
2022-09-01T22:17:20.643Z,98679.13
2022-09-01T22:19:47.002Z,98681.19
2022-09-01T22:22:13.475Z,98673.53
2022-09-01T22:24:39.863Z,98681.47
2022-09-01T22:27:06.216Z,98678.25
2022-09-01T22:29:32.743Z,98674.41
2022-09-01T22:32:00.427Z,98676.69
2022-09-01T22:34:27.030Z,98674.41
2022-09-01T22:36:53.415Z,98674.13
2022-09-01T22:39:19.969Z,98669.78
2022-09-01T22:41:51.521Z,98668.00
2022-09-01T22:44:18.128Z,98676.63
2022-09-01T22:46:44.486Z,98672.19
2022-09-01T22:49:10.885Z,98670.28
2022-09-01T22:51:38.057Z,98674.56
2022-09-01T22:54:04.785Z,98667.91
2022-09-01T22:56:32.656Z,98663.09
2022-09-01T22:59:01.644Z,98658.88
2022-09-01T23:01:31.464Z,98658.69
2022-09-01T23:04:00.516Z,98661.47
2022-09-01T23:06:27.672Z,98658.78
2022-09-01T23:08:55.553Z,98657.06
2022-09-01T23:11:22.077Z,98661.84
2022-09-01T23:13:48.461Z,98659.88
2022-09-01T23:16:15.034Z,98661.22
2022-09-01T23:18:42.912Z,98658.50
2022-09-01T23:21:09.614Z,98663.38
2022-09-01T23:23:36.219Z,98654.19
2022-09-01T23:26:03.616Z,98648.81
2022-09-01T23:28:30.043Z,98650.72
2022-09-01T23:30:56.401Z,98641.00
2022-09-01T23:33:23.402Z,98650.72
2022-09-01T23:35:50.875Z,98655.09
2022-09-01T23:38:18.190Z,98648.09
2022-09-01T23:40:44.918Z,98656.44
2022-09-01T23:43:11.443Z,98646.69
2022-09-01T23:45:38.924Z,98643.25
2022-09-01T23:48:05.366Z,98640.56
2022-09-01T23:50:31.841Z,98638.66
2022-09-01T23:52:58.189Z,98642.09
2022-09-01T23:55:26.198Z,98643.44
2022-09-01T23:57:52.553Z,98634.63
